Latest Weather Observations for Toowoomba

IDQ60801

Issued at 11:35 pm EST Thursday 30 October 2014 (issued every 30 minutes, with the page automatically refreshed every 10 minutes)

About weather observations | Map of weather stations | Latest weather observations for QLD | Other Formats
Station Details ID: 041529 Name: TOOWOOMBA AIRPORT Lat: -27.54 Lon: 151.91 Height: 640.9 m
Data from the previous 72 hours. | See also: Recent months at Toowoomba
Date/Time
EST
Temp
°C
App
Temp
°C
Dew
Point
Rel
Hum
%
Delta-T
°C
Wind Press
QNH
hPa
Press
MSL
hPa
Rain
since 9 am
mm
Dir
 
Spd
km/h
Gust
km/h
Spd
kts
Gust
kts
30/11:30pm 17.6 15.7 16.6 94 0.6 E 22 32 12 17 1018.4 - 0.0
30/11:00pm 17.6 14.5 16.5 93 0.7 E 28 35 15 19 1018.5 - 0.0
30/10:30pm 17.8 14.4 16.7 93 0.7 E 30 37 16 20 1018.8 - 0.0
30/10:13pm 17.9 14.4 16.6 92 0.8 E 30 37 16 20 1018.9 - 0.0
30/10:00pm 18.0 14.2 16.7 92 0.8 E 32 39 17 21 1018.8 - 0.0
30/09:30pm 18.3 15.2 16.5 89 1.1 E 28 37 15 20 1018.4 - 0.0
30/09:00pm 18.8 16.3 16.2 85 1.6 E 24 32 13 17 1018.2 1015.9 0.0
30/08:30pm 19.9 16.7 16.2 79 2.3 E 28 35 15 19 1017.8 - 0.0
30/08:00pm 20.7 16.7 16.1 75 2.8 E 32 41 17 22 1017.3 - 0.0
30/07:30pm 21.5 17.8 16.0 71 3.4 E 30 37 16 20 1017.0 - 0.0
30/07:00pm 22.7 19.3 15.8 65 4.3 E 28 35 15 19 1016.7 - 0.0
30/06:30pm 23.9 20.7 15.4 59 5.3 E 26 41 14 22 1016.2 - 0.0
30/06:00pm 25.6 21.8 13.5 47 7.3 E 26 37 14 20 1015.8 1013.4 0.0
30/05:30pm 27.2 23.8 11.2 36 9.4 E 20 26 11 14 1015.5 - 0.0
30/05:00pm 27.5 24.1 11.1 36 9.6 E 20 26 11 14 1015.4 - 0.0
30/04:30pm 27.6 25.1 11.2 36 9.6 E 15 24 8 13 1015.2 - 0.0
30/04:00pm 27.7 24.9 11.3 36 9.6 E 17 24 9 13 1015.2 - 0.0
30/03:30pm 27.9 25.5 11.5 36 9.7 ENE 15 20 8 11 1015.2 - 0.0
30/03:00pm 28.8 25.4 11.4 34 10.3 E 20 26 11 14 1015.5 1013.1 0.0
30/02:30pm 28.4 26.0 11.5 35 10.0 SE 15 22 8 12 1015.8 - 0.0
30/02:00pm 28.7 26.9 9.4 30 11.0 WSW 9 17 5 9 1016.1 - 0.0
30/01:30pm 28.5 25.5 9.2 30 11.0 N 15 22 8 12 1016.5 - 0.0
30/01:00pm 27.7 25.4 11.7 37 9.5 NE 15 20 8 11 1017.0 - 0.0
30/12:30pm 28.0 26.2 12.0 37 9.5 ENE 13 20 7 11 1017.5 - 0.0
30/12:00pm 27.7 26.5 12.9 40 8.9 E 11 19 6 10 1018.0 1015.7 0.0
30/11:30am 26.7 26.0 13.1 43 8.2 E 9 19 5 10 1018.7 - 0.0
30/11:00am 25.9 25.0 13.7 47 7.4 ESE 11 17 6 9 1019.3 - 0.0
30/10:30am 24.1 23.9 13.6 52 6.3 NE 7 17 4 9 1019.7 - 0.0
30/10:00am 23.3 22.4 13.8 55 5.7 ENE 11 19 6 10 1020.0 - 0.0
30/09:30am 22.4 20.4 14.0 59 5.0 ENE 17 24 9 13 1020.2 - 0.0
30/09:00am 21.5 18.9 13.7 61 4.6 ENE 20 24 11 13 1020.4 1018.1 0.0
30/08:30am 20.6 17.7 14.0 66 3.9 E 22 28 12 15 1020.4 - 0.0
30/08:00am 19.5 16.4 13.4 68 3.6 E 22 32 12 17 1020.6 - 0.0
30/07:30am 18.5 14.5 12.9 70 3.2 ENE 26 33 14 18 1020.4 - 0.0
30/07:00am 17.8 13.3 13.7 77 2.4 E 30 37 16 20 1020.2 - 0.0
30/06:30am 16.8 11.9 13.7 82 1.8 E 32 37 17 20 1019.8 - 0.0
30/06:00am 15.9 11.1 13.9 88 1.2 E 32 41 17 22 1019.5 1017.2 0.0
30/05:30am 15.4 11.3 13.9 91 0.9 E 28 39 15 21 1019.0 - 0.0
30/05:07am 15.5 10.7 14.0 91 0.9 E 32 39 17 21 1018.7 - 0.0
30/05:00am 15.5 10.7 14.0 91 0.9 E 32 39 17 21 1018.5 - 0.0
30/04:30am 15.8 11.1 14.3 91 0.9 E 32 43 17 23 1018.2 - 0.0
30/04:00am 15.8 10.6 14.5 92 0.8 E 35 43 19 23 1017.9 - 0.0
30/03:30am 15.8 11.1 14.3 91 0.9 E 32 44 17 24 1017.9 - 0.0
30/03:00am 15.9 10.7 14.6 92 0.8 E 35 46 19 25 1017.9 1015.6 0.0
30/02:30am 15.9 11.0 14.4 91 0.9 E 33 44 18 24 1018.0 - 0.0
30/02:00am 16.1 11.3 14.5 90 0.9 E 33 41 18 22 1018.2 - 0.0
30/01:30am 16.1 10.9 14.6 91 0.9 E 35 44 19 24 1018.1 - 0.0
30/01:00am 16.2 10.7 14.7 91 0.9 E 37 44 20 24 1018.2 - 0.0
30/12:30am 16.2 10.7 14.7 91 0.9 E 37 44 20 24 1018.3 - 0.0
30/12:18am 16.2 10.3 14.7 91 0.9 E 39 46 21 25 1018.3 - 0.0
30/12:00am 16.2 10.3 14.7 91 0.9 E 39 50 21 27 1018.7 1016.4 0.0
 
Date/Time
EST
Temp
°C
App
Temp
°C
Dew
Point
Rel
Hum
%
Delta-T
°C
Wind Press
QNH
hPa
Press
MSL
hPa
Rain
since 9 am
mm
Dir
 
Spd
km/h
Gust
km/h
Spd
kts
Gust
kts
29/11:30pm 16.2 10.2 14.4 89 1.1 E 39 46 21 25 1019.1 - 0.0
29/11:00pm 16.4 10.2 13.9 85 1.5 E 39 50 21 27 1019.1 - 0.0
29/10:30pm 16.6 10.3 13.5 82 1.8 E 39 52 21 28 1019.3 - 0.0
29/10:00pm 16.9 9.7 13.2 79 2.1 E 43 54 23 29 1019.0 - 0.0
29/09:30pm 17.3 11.0 13.6 79 2.2 E 39 50 21 27 1019.0 - 0.0
29/09:00pm 17.7 11.4 13.6 77 2.4 E 39 52 21 28 1018.9 1016.6 0.0
29/08:30pm 18.1 11.1 13.8 76 2.5 E 43 52 23 28 1018.7 - 0.0
29/08:00pm 18.9 12.2 12.2 65 3.8 E 39 50 21 27 1018.3 - 0.0
29/07:30pm 19.8 13.7 11.6 59 4.7 E 35 50 19 27 1018.0 - 0.0
29/07:00pm 21.0 14.9 11.9 56 5.2 E 35 46 19 25 1017.6 - 0.0
29/06:30pm 22.1 15.4 10.9 49 6.4 E 37 46 20 25 1017.2 - 0.0
29/06:00pm 23.6 17.7 11.0 45 7.2 E 33 44 18 24 1016.6 1014.3 0.0
29/05:30pm 25.3 20.0 12.5 45 7.6 E 32 41 17 22 1016.1 - 0.0
29/05:00pm 27.0 22.0 13.4 43 8.2 E 32 39 17 21 1015.8 - 0.0
29/04:54pm 27.6 23.0 12.4 39 9.1 E 28 39 15 21 1015.7 - 0.0
29/04:30pm 31.3 27.3 -2.6 11 16.1 W 9 15 5 8 1015.4 - 0.0
29/04:00pm 31.3 27.1 -3.9 10 16.4 SW 9 20 5 11 1015.1 - 0.0
29/03:30pm 31.9 26.0 -1.0 12 16.1 SW 20 26 11 14 1015.2 - 0.0
29/03:00pm 31.5 27.5 -2.5 11 16.2 SW 9 17 5 9 1015.4 1013.0 0.0
29/02:30pm 31.2 27.3 -1.5 12 15.8 NNE 9 17 5 9 1015.4 - 0.0
29/02:00pm 30.9 26.2 -1.8 12 15.7 WSW 13 28 7 15 1015.9 - 0.0
29/01:30pm 30.2 25.1 -2.3 12 15.4 WSW 15 28 8 15 1016.2 - 0.0
29/01:00pm 30.1 25.8 -1.3 13 15.1 W 11 20 6 11 1016.6 - 0.0
29/12:30pm 29.9 26.0 -1.5 13 15.1 SSW 9 19 5 10 1016.8 - 0.0
29/12:00pm 28.8 24.0 -2.3 13 14.6 WNW 13 15 7 8 1017.2 1014.8 0.0
29/11:30am 28.8 23.4 -1.3 14 14.4 S 17 24 9 13 1017.6 - 0.0
29/11:00am 28.6 23.7 -0.5 15 14.1 WSW 15 22 8 12 1017.7 - 0.0
29/10:30am 28.2 23.4 0.0 16 13.7 WSW 15 20 8 11 1017.9 - 0.0
29/10:00am 26.8 22.2 -1.1 16 13.2 SW 13 20 7 11 1018.2 - 0.0
29/09:30am 27.2 23.1 0.1 17 13.1 S 11 19 6 10 1018.4 - 0.0
29/09:00am 25.9 21.3 -1.0 17 12.6 S 13 19 7 10 1018.4 1016.1 0.0
29/08:30am 24.7 20.9 -0.4 19 11.8 SSW 9 19 5 10 1018.3 - 0.0
29/08:00am 23.5 18.9 -1.4 19 11.4 SW 13 19 7 10 1018.1 - 0.0
29/07:30am 22.5 17.1 -1.6 20 10.9 SW 17 22 9 12 1017.8 - 0.0
29/07:00am 21.3 16.4 -0.6 23 10.0 SSW 15 17 8 9 1017.4 - 0.0
29/06:30am 19.8 14.8 -1.3 24 9.4 SSW 15 20 8 11 1017.1 - 0.0
29/06:00am 17.9 13.3 -1.3 27 8.4 SW 13 17 7 9 1016.8 1014.5 0.0
29/05:30am 15.8 11.5 -1.7 30 7.5 WSW 11 15 6 8 1016.6 - 0.0
29/05:00am 15.9 11.9 -2.1 29 7.6 W 9 11 5 6 1016.4 - 0.0
29/04:30am 16.5 12.5 -2.5 27 8.0 W 9 11 5 6 1016.1 - 0.0
29/04:00am 16.8 12.5 -1.8 28 8.0 SW 11 15 6 8 1016.0 - 0.0
29/03:30am 16.4 12.7 -2.6 27 8.0 SW 7 9 4 5 1015.8 - 0.0
29/03:00am 16.7 12.3 -2.4 27 8.1 SW 11 15 6 8 1015.8 1013.4 0.0
29/02:30am 17.5 12.7 -2.7 25 8.6 SW 13 17 7 9 1015.8 - 0.0
29/02:00am 18.1 13.3 -2.8 24 8.9 SSW 13 17 7 9 1015.7 - 0.0
29/01:30am 18.2 13.3 -3.2 23 9.0 SW 13 15 7 8 1015.8 - 0.0
29/01:00am 18.8 13.8 -4.0 21 9.5 SSW 13 20 7 11 1015.9 - 0.0
29/12:30am 20.3 14.5 -4.8 18 10.5 SSW 17 24 9 13 1016.0 - 0.0
29/12:00am 20.4 14.5 -5.4 17 10.6 SSW 17 24 9 13 1016.2 1013.9 0.0
 
Date/Time
EST
Temp
°C
App
Temp
°C
Dew
Point
Rel
Hum
%
Delta-T
°C
Wind Press
QNH
hPa
Press
MSL
hPa
Rain
since 9 am
mm
Dir
 
Spd
km/h
Gust
km/h
Spd
kts
Gust
kts
28/11:30pm 21.7 15.5 -5.2 16 11.3 SSW 19 28 10 15 1016.3 - 0.0
28/11:00pm 22.3 15.8 -5.6 15 11.7 SSW 20 30 11 16 1016.3 - 0.0
28/10:30pm 23.1 17.1 -6.8 13 12.3 SSW 17 22 9 12 1016.3 - 0.0
28/10:00pm 23.4 17.8 -6.5 13 12.4 SSW 15 20 8 11 1016.3 - 0.0
28/09:30pm 23.9 18.8 -5.2 14 12.4 S 13 19 7 10 1016.3 - 0.0
28/09:00pm 22.9 21.0 9.0 41 7.7 SE 9 13 5 7 1016.1 1013.8 0.0
28/08:30pm 22.0 21.0 13.4 58 5.1 ESE 11 15 6 8 1016.0 - 0.0
28/08:00pm 25.9 20.2 -3.6 14 13.2 SSW 17 26 9 14 1015.8 - 0.0
28/07:30pm 26.1 20.9 -2.5 15 13.1 SW 15 19 8 10 1015.4 - 0.0
28/07:00pm 27.4 22.1 -0.6 16 13.4 SW 17 24 9 13 1014.8 - 0.0
28/06:30pm 28.3 23.1 0.1 16 13.7 WSW 17 22 9 12 1014.4 - 0.0
28/06:00pm 29.5 23.1 1.1 16 14.2 WSW 24 33 13 18 1013.9 1011.5 0.0
28/05:30pm 30.7 24.2 2.9 17 14.4 WSW 26 37 14 20 1013.3 - 0.0
28/05:00pm 31.9 25.5 3.0 16 15.1 WSW 26 37 14 20 1013.0 - 0.0
28/04:30pm 32.6 25.9 3.5 16 15.4 WSW 28 41 15 22 1012.9 - 0.0
28/04:00pm 33.8 27.3 4.5 16 15.9 WSW 28 41 15 22 1012.6 - 0.0
28/03:30pm 33.5 26.1 4.2 16 15.8 W 32 48 17 26 1012.7 - 0.0
28/03:21pm 33.6 26.5 3.4 15 16.1 WSW 30 48 16 26 1012.5 - 0.0
28/03:00pm 33.7 27.5 4.4 16 15.9 W 26 41 14 22 1012.8 1010.4 0.0
28/02:30pm 34.3 27.1 3.0 14 16.6 W 30 46 16 25 1012.8 - 0.0
28/02:00pm 34.0 27.1 4.6 16 16.0 W 30 41 16 22 1013.2 - 0.0
28/01:30pm 34.5 28.6 5.9 17 15.9 W 26 44 14 24 1013.5 - 0.0
28/01:00pm 34.4 28.5 5.8 17 15.9 W 26 37 14 20 1014.0 - 0.0
28/12:30pm 33.3 27.6 6.6 19 14.9 W 26 39 14 21 1014.2 - 0.0
28/12:00pm 33.4 27.3 8.1 21 14.5 NW 30 33 16 18 1014.4 1012.0 0.0
28/11:30am 31.6 27.2 7.3 22 13.6 W 20 30 11 16 1014.7 - 0.0
28/11:00am 31.0 27.1 9.3 26 12.5 WNW 20 32 11 17 1015.1 - 0.0
28/10:30am 30.7 26.6 10.1 28 12.0 WNW 22 32 12 17 1015.4 - 0.0
28/10:00am 29.5 25.8 10.1 30 11.3 WNW 20 30 11 16 1015.7 - 0.0
28/09:30am 28.5 25.0 10.2 32 10.6 WNW 19 26 10 14 1015.8 - 0.0
28/09:00am 28.3 25.0 10.9 34 10.2 W 19 24 10 13 1015.8 1013.4 0.8
28/08:30am 26.8 23.1 10.1 35 9.6 WNW 20 24 11 13 1015.7 - 0.8
28/08:00am 25.8 22.1 9.6 36 9.2 NW 19 24 10 13 1015.7 - 0.8
28/07:30am 25.6 21.8 9.8 37 9.0 NW 20 24 11 13 1015.7 - 0.8
28/07:00am 24.9 21.2 9.6 38 8.6 WNW 19 24 10 13 1015.5 - 0.8
28/06:30am 24.3 21.8 9.8 40 8.2 W 13 17 7 9 1015.4 - 0.8
28/06:00am 23.3 20.5 10.0 43 7.5 WNW 15 19 8 10 1015.1 1012.8 0.8
28/05:30am 22.7 19.8 9.8 44 7.2 WNW 15 20 8 11 1014.9 - 0.8
28/05:00am 22.5 19.6 9.6 44 7.2 WNW 15 19 8 10 1014.6 - 0.8
28/04:30am 22.4 19.9 9.6 44 7.1 WNW 13 19 7 10 1014.4 - 0.8
28/04:00am 22.5 19.6 9.6 44 7.2 WNW 15 19 8 10 1014.2 - 0.8
28/03:30am 22.6 19.7 9.7 44 7.2 WNW 15 20 8 11 1014.1 - 0.8
28/03:00am 22.9 20.1 10.0 44 7.3 WNW 15 19 8 10 1014.1 1011.7 0.8
28/02:30am 23.3 20.0 9.7 42 7.6 NW 17 22 9 12 1014.0 - 0.8
28/02:00am 23.5 20.2 9.5 41 7.8 NW 17 24 9 13 1014.1 - 0.8
28/01:30am 23.9 20.3 9.9 41 7.9 NW 19 26 10 14 1014.4 - 0.8
28/01:00am 23.2 20.5 10.3 44 7.3 NW 15 20 8 11 1014.6 - 0.8
28/12:30am 23.7 20.1 10.4 43 7.6 NNW 20 24 11 13 1014.9 - 0.8
28/12:00am 23.4 20.0 11.1 46 7.1 NNW 20 26 11 14 1015.5 1013.1 0.8

Other Formats:

Comma delimited format used in spreadsheet applications
http://www.bom.gov.au/fwo/IDQ60801/IDQ60801.95551.axf

JavaScript Object Notation format (JSON) in row-major order
http://www.bom.gov.au/fwo/IDQ60801/IDQ60801.95551.json